createdAt,value
2022-08-27T00:04:21.133Z,39.3106
2022-08-27T00:14:22.645Z,39.23203
2022-08-27T00:19:23.604Z,39.4974
2022-08-27T00:24:24.530Z,39.61201
2022-08-27T00:29:25.445Z,39.75043
2022-08-27T00:34:26.423Z,39.84667
2022-08-27T00:39:27.338Z,39.90671
2022-08-27T00:44:28.281Z,39.55737
2022-08-27T00:49:29.612Z,39.70806
2022-08-27T00:54:30.637Z,39.8163
2022-08-27T00:59:31.590Z,39.79844
2022-08-27T01:04:32.849Z,39.89454
2022-08-27T01:09:47.221Z,39.91246
2022-08-27T01:14:53.157Z,39.6291
2022-08-27T01:19:56.686Z,39.71315
2022-08-27T01:24:58.255Z,39.29653
2022-08-27T01:29:59.226Z,39.36317
2022-08-27T01:35:00.192Z,39.47807
2022-08-27T01:40:01.211Z,39.41752
2022-08-27T01:45:05.042Z,39.35089
2022-08-27T01:50:06.887Z,39.06026
2022-08-27T01:55:07.829Z,39.09063
2022-08-27T02:00:08.758Z,39.07921
2022-08-27T02:05:09.674Z,39.51356
2022-08-27T02:10:11.659Z,39.63975
2022-08-27T02:15:12.633Z,39.50108
2022-08-27T02:20:13.583Z,39.64535
2022-08-27T02:25:14.488Z,39.68176
2022-08-27T02:30:15.498Z,39.93445
2022-08-27T02:35:16.436Z,39.98264
2022-08-27T02:40:17.581Z,40.04313
2022-08-27T02:45:18.605Z,40.22307
2022-08-27T02:50:19.524Z,40.15105
2022-08-27T02:55:20.495Z,40.12043
2022-08-27T03:00:21.863Z,39.95138
2022-08-27T03:05:23.192Z,40.16242
2022-08-27T03:10:24.150Z,40.17993
2022-08-27T03:15:26.422Z,39.98105
2022-08-27T03:20:28.234Z,39.9868
2022-08-27T03:25:29.159Z,40.18568
2022-08-27T03:30:30.508Z,39.85361
2022-08-27T03:35:31.464Z,39.73365
2022-08-27T03:45:48.496Z,39.84125
2022-08-27T03:51:02.057Z,39.58153
2022-08-27T03:56:03.016Z,39.55664
2022-08-27T04:01:03.976Z,39.52763
2022-08-27T04:06:04.949Z,39.73373
2022-08-27T04:11:23.675Z,40.13761
2022-08-27T04:16:25.244Z,39.83478
2022-08-27T04:21:26.246Z,39.78072
2022-08-27T04:26:27.165Z,40.02815
2022-08-27T04:31:28.222Z,40.04004
2022-08-27T04:36:29.235Z,40.06437
2022-08-27T04:41:30.181Z,40.21554
2022-08-27T04:46:31.269Z,40.3117
2022-08-27T04:51:33.699Z,40.19742
2022-08-27T05:01:35.500Z,39.78134
2022-08-27T05:06:36.550Z,40.0464
2022-08-27T05:11:37.481Z,40.32978
2022-08-27T05:16:38.562Z,40.39618
2022-08-27T05:21:39.582Z,40.51641
2022-08-27T05:26:40.554Z,40.55846
2022-08-27T05:31:42.004Z,40.64846
2022-08-27T05:36:48.022Z,40.44371
2022-08-27T05:41:50.266Z,40.2447
2022-08-27T05:46:51.236Z,40.23903
2022-08-27T05:51:52.172Z,40.31131
2022-08-27T05:56:53.136Z,40.28734
2022-08-27T06:01:54.094Z,40.08822
2022-08-27T06:06:56.580Z,39.8161
2022-08-27T06:11:58.213Z,39.4843
2022-08-27T06:16:59.286Z,39.36955
2022-08-27T06:22:10.049Z,39.59302
2022-08-27T06:27:12.798Z,39.38099
2022-08-27T06:32:13.762Z,39.17007
2022-08-27T06:37:14.686Z,39.4006
2022-08-27T06:42:15.793Z,39.48502
2022-08-27T06:47:18.866Z,39.25517
2022-08-27T06:52:23.061Z,39.18379
2022-08-27T06:57:24.397Z,39.45531
2022-08-27T07:07:31.860Z,39.18838
2022-08-27T07:12:37.521Z,38.90967
2022-08-27T07:17:38.508Z,38.95943
2022-08-27T07:22:39.560Z,39.02602
2022-08-27T07:27:40.556Z,38.8083
2022-08-27T07:32:41.602Z,38.69891
2022-08-27T07:37:42.645Z,38.67513
2022-08-27T07:42:43.645Z,38.62612
2022-08-27T07:47:44.594Z,38.55364
2022-08-27T07:57:46.448Z,38.41864
2022-08-27T08:02:47.670Z,38.45522
2022-08-27T08:12:56.570Z,38.55985
2022-08-27T08:17:57.813Z,38.53573
2022-08-27T08:22:58.867Z,38.48065
2022-08-27T08:28:00.247Z,38.31721
2022-08-27T08:33:01.605Z,38.5413
2022-08-27T08:38:02.572Z,38.51677
2022-08-27T08:43:03.580Z,38.24993
2022-08-27T08:48:04.681Z,37.76391
2022-08-27T08:53:05.662Z,37.84328
2022-08-27T08:58:06.709Z,38.05014
2022-08-27T09:03:07.702Z,37.95389
2022-08-27T09:08:31.967Z,37.84371
2022-08-27T09:13:34.680Z,37.35739
2022-08-27T09:18:35.801Z,37.10889
2022-08-27T09:23:44.700Z,37.10361
2022-08-27T09:28:46.276Z,37.00047
2022-08-27T09:33:56.034Z,37.21867
2022-08-27T09:43:58.567Z,36.65719
2022-08-27T09:48:59.592Z,36.46218
2022-08-27T09:54:02.343Z,36.40282
2022-08-27T09:59:03.429Z,36.34998
2022-08-27T10:04:04.465Z,36.57538
2022-08-27T10:09:14.516Z,36.36079
2022-08-27T10:14:15.495Z,36.36801
2022-08-27T10:19:16.526Z,36.56961
2022-08-27T10:24:17.750Z,36.31872
2022-08-27T10:29:18.713Z,36.21448
2022-08-27T10:34:19.792Z,36.00733
2022-08-27T10:39:20.959Z,36.17296
2022-08-27T10:49:24.347Z,35.69656
2022-08-27T10:54:32.504Z,36.10059
2022-08-27T10:59:33.932Z,36.02859
2022-08-27T11:04:34.881Z,36.13106
2022-08-27T11:09:36.227Z,35.9482
2022-08-27T11:14:37.152Z,35.98401
2022-08-27T11:19:44.858Z,36.14204
2022-08-27T11:29:46.512Z,35.4195
2022-08-27T11:34:47.523Z,34.84327
2022-08-27T11:39:52.311Z,34.73144
2022-08-27T11:49:53.866Z,34.97948
2022-08-27T11:54:54.808Z,34.81547
2022-08-27T11:59:55.750Z,34.49546
2022-08-27T12:04:56.737Z,34.24903
2022-08-27T12:09:57.670Z,34.55912
2022-08-27T12:14:58.593Z,34.96253
2022-08-27T12:20:00.039Z,34.69927
2022-08-27T12:25:01.064Z,34.62549
2022-08-27T12:35:04.523Z,34.08285
2022-08-27T12:45:06.338Z,33.99253
2022-08-27T12:50:07.398Z,33.53042
2022-08-27T12:55:08.390Z,33.42815
2022-08-27T13:00:09.387Z,33.23
2022-08-27T13:05:10.701Z,32.7614
2022-08-27T13:10:11.845Z,32.13164
2022-08-27T13:15:14.489Z,32.17298
2022-08-27T13:20:17.448Z,32.30027
2022-08-27T13:25:18.367Z,32.53721
2022-08-27T13:30:35.562Z,32.28347
2022-08-27T13:40:38.031Z,31.58801
2022-08-27T13:45:38.996Z,31.349
2022-08-27T13:50:40.032Z,31.40319
2022-08-27T13:55:41.171Z,31.47763
2022-08-27T14:00:42.085Z,31.62003
2022-08-27T14:05:43.012Z,31.79389
2022-08-27T14:10:43.979Z,31.85837
2022-08-27T14:16:28.944Z,32.1342
2022-08-27T14:21:40.041Z,32.11934
2022-08-27T14:26:41.017Z,32.11776
2022-08-27T14:31:42.180Z,32.1155
2022-08-27T14:36:54.647Z,31.90117
2022-08-27T14:41:58.179Z,31.93699
2022-08-27T14:51:59.604Z,32.22781
2022-08-27T14:57:00.567Z,32.10305
2022-08-27T15:02:01.796Z,31.9639
2022-08-27T15:07:02.796Z,32.11937
2022-08-27T15:12:04.008Z,32.27373
2022-08-27T15:17:10.969Z,32.56353
2022-08-27T15:22:32.758Z,32.93961
2022-08-27T15:27:38.590Z,32.9448
2022-08-27T15:37:40.271Z,32.76083
2022-08-27T15:42:41.304Z,32.85322
2022-08-27T15:47:42.259Z,33.29977
2022-08-27T15:52:44.665Z,33.61272
2022-08-27T15:57:51.554Z,33.66054
2022-08-27T16:02:52.565Z,33.67574
2022-08-27T16:12:54.033Z,33.95939
2022-08-27T16:17:54.958Z,33.85369
2022-08-27T16:22:55.896Z,33.92168
2022-08-27T16:27:56.808Z,34.02732
2022-08-27T16:32:57.748Z,34.17367
2022-08-27T16:37:58.638Z,33.97645
2022-08-27T16:42:59.826Z,34.34133
2022-08-27T16:48:00.812Z,34.36453
2022-08-27T16:53:01.900Z,34.32918
2022-08-27T16:58:02.813Z,34.32959
2022-08-27T17:03:03.723Z,34.44079
2022-08-27T17:08:04.761Z,34.33243
2022-08-27T17:13:06.890Z,34.44345
2022-08-27T17:18:07.787Z,34.71657
2022-08-27T17:23:10.143Z,34.75489
2022-08-27T17:28:11.347Z,34.4103
2022-08-27T17:33:12.550Z,34.19565
2022-08-27T17:43:21.199Z,34.15343
2022-08-27T17:48:26.462Z,34.19177
2022-08-27T17:53:27.691Z,34.3828
2022-08-27T17:58:28.734Z,34.22262
2022-08-27T18:03:29.637Z,34.55077
2022-08-27T18:08:45.508Z,34.83418
2022-08-27T18:13:49.133Z,35.11657
2022-08-27T18:18:50.271Z,35.14115
2022-08-27T18:23:51.228Z,35.33103
2022-08-27T18:28:52.189Z,35.53849
2022-08-27T18:33:53.333Z,35.77037
2022-08-27T18:38:54.288Z,35.57745
2022-08-27T18:43:55.210Z,35.69461
2022-08-27T18:53:57.225Z,35.5304
2022-08-27T18:58:58.133Z,35.27366
2022-08-27T19:08:59.517Z,35.40259
2022-08-27T19:14:01.701Z,35.54948
2022-08-27T19:19:02.606Z,35.50305
2022-08-27T19:24:04.139Z,35.33294
2022-08-27T19:29:05.112Z,34.89677
2022-08-27T19:34:06.020Z,34.90615
2022-08-27T19:39:07.590Z,34.50622
2022-08-27T19:44:08.690Z,34.38162
2022-08-27T19:49:09.640Z,34.50596
2022-08-27T19:54:10.593Z,34.64934
2022-08-27T19:59:20.514Z,34.96622
2022-08-27T20:04:23.582Z,34.72602
2022-08-27T20:09:24.526Z,34.68364
2022-08-27T20:14:25.567Z,35.06134
2022-08-27T20:24:26.937Z,35.39261
2022-08-27T20:29:32.375Z,35.79339
2022-08-27T20:34:34.001Z,35.95403
2022-08-27T20:39:34.952Z,35.87396
2022-08-27T20:44:35.827Z,36.26776
2022-08-27T20:49:36.716Z,36.52157
2022-08-27T20:54:37.680Z,36.66587
2022-08-27T20:59:38.634Z,36.90692
2022-08-27T21:04:39.558Z,37.10579
2022-08-27T21:09:55.527Z,37.30431
2022-08-27T21:14:58.305Z,37.14059
2022-08-27T21:19:59.188Z,37.31552
2022-08-27T21:25:00.107Z,37.41835
2022-08-27T21:30:01.030Z,37.50218
2022-08-27T21:35:02.081Z,37.345
2022-08-27T21:40:03.336Z,37.39198
2022-08-27T21:45:04.367Z,37.29573
2022-08-27T21:50:05.283Z,37.39793
2022-08-27T22:00:06.667Z,36.99197
2022-08-27T22:05:07.622Z,37.33216
2022-08-27T22:10:08.580Z,37.58007
2022-08-27T22:15:09.533Z,37.74353
2022-08-27T22:20:10.456Z,37.85771
2022-08-27T22:25:11.456Z,37.89373
2022-08-27T22:30:12.540Z,38.18317
2022-08-27T22:35:13.495Z,38.1583
2022-08-27T22:40:19.497Z,38.3154
2022-08-27T22:45:21.215Z,38.26677
2022-08-27T22:50:22.331Z,38.3395
2022-08-27T22:55:23.262Z,38.65902
2022-08-27T23:00:24.181Z,38.73141
2022-08-27T23:05:25.329Z,38.90639
2022-08-27T23:10:27.169Z,39.06291
2022-08-27T23:15:28.223Z,39.0085
2022-08-27T23:20:29.221Z,39.10476
2022-08-27T23:25:30.158Z,39.23676
2022-08-27T23:30:31.086Z,39.17078
2022-08-27T23:40:32.553Z,38.79075
2022-08-27T23:45:35.976Z,39.08642
2022-08-27T23:50:40.740Z,39.14678
